Time;durP1;ratioP1;P1;durP2;ratioP2;P2;SDS_P1;SDS_P2;PMS_P1;PMS_P2;Temp;Humidity;BMP_temperature;BMP_pressure;BME280_temperature;BME280_humidity;BME280_pressure;Samples;Min_cycle;Max_cycle;Signal;HPM_P1;HPM_P2
2023/04/27 07:22:31;;;;;;;13.02;8.52;;;;;;;-145.79;57.64;78852.81;5324912;27;1209778;-69
2023/04/27 07:25:04;;;;;;;15.30;7.88;;;;;;;-145.79;57.46;78857.06;5321219;28;20072;-69
2023/04/27 07:27:35;;;;;;;12.52;8.13;;;;;;;-145.79;57.83;78846.44;5343726;27;20051;-69
2023/04/27 07:30:08;;;;;;;13.63;8.15;;;;;;;-145.79;57.29;78833.72;5325776;27;20059;-69
2023/04/27 07:32:40;;;;;;;8.25;7.15;;;;;;;-145.79;58.75;78791.31;5319422;28;20410;-70
2023/04/27 07:35:12;;;;;;;13.73;8.23;;;;;;;-145.79;56.38;78797.69;5320145;28;20131;-70
2023/04/27 07:37:44;;;;;;;11.63;7.68;;;;;;;-145.79;55.64;78797.69;5320706;28;20382;-71
2023/04/27 07:40:15;;;;;;;9.45;7.78;;;;;;;-145.79;55.56;78780.72;5319883;28;20039;-71
2023/04/27 07:42:47;;;;;;;10.55;8.00;;;;;;;-145.79;57.77;78746.78;5301716;28;20513;-71
2023/04/27 07:45:18;;;;;;;11.98;8.13;;;;;;;-145.79;55.55;78755.28;5301915;28;20031;-71
2023/04/27 07:47:52;;;;;;;10.27;7.28;;;;;;;-145.79;55.40;78744.66;5302600;28;20028;-71
2023/04/27 07:50:24;;;;;;;10.65;7.07;;;;;;;-145.79;56.98;78714.97;5324638;28;20062;-71
2023/04/27 07:52:59;;;;;;;11.07;8.02;;;;;;;-145.79;55.67;78710.75;5326454;27;20480;-71
2023/04/27 07:55:30;;;;;;;12.20;7.65;;;;;;;-145.79;53.59;78717.09;5319773;28;20093;-71
2023/04/27 07:58:03;;;;;;;15.98;7.95;;;;;;;-145.79;54.36;78700.13;5320945;28;20151;-77
2023/04/27 08:00:35;;;;;;;9.02;6.03;;;;;;;-145.79;53.20;78702.25;5305876;28;20382;-74
2023/04/27 08:03:07;;;;;;;8.70;7.07;;;;;;;-145.79;52.84;78693.78;5300425;28;20030;-74
2023/04/27 08:05:38;;;;;;;13.82;7.18;;;;;;;-145.79;53.03;78691.66;5308835;28;20028;-73
2023/04/27 08:08:10;;;;;;;12.32;7.28;;;;;;;-145.79;52.18;78691.66;5321332;28;20038;-74
2023/04/27 08:10:41;;;;;;;10.50;7.20;;;;;;;-145.79;52.46;78668.34;5314426;28;20036;-74
2023/04/27 08:13:13;;;;;;;13.23;7.35;;;;;;;-145.79;52.07;78666.22;5321457;28;20024;-74
2023/04/27 08:15:47;;;;;;;9.95;7.22;;;;;;;-145.79;52.17;78657.75;5321037;28;20031;-74
2023/04/27 08:18:18;;;;;;;8.18;5.97;;;;;;;-145.79;50.28;78666.22;5320509;28;20035;-74
2023/04/27 08:20:49;;;;;;;8.63;6.25;;;;;;;-145.79;50.54;78653.50;5319517;28;20040;-73
2023/04/27 08:23:21;;;;;;;10.25;7.13;;;;;;;-145.79;51.27;78645.00;5303926;28;20024;-75
2023/04/27 08:25:54;;;;;;;15.93;6.53;;;;;;;-145.79;52.22;78623.81;5320251;28;20020;-74
2023/04/27 08:28:26;;;;;;;10.27;5.95;;;;;;;-145.79;50.71;78608.97;5320912;28;20040;-74
2023/04/27 08:30:57;;;;;;;7.93;5.55;;;;;;;-145.79;49.67;78604.72;5310203;28;20620;-72
2023/04/27 08:33:34;;;;;;;8.23;5.45;;;;;;;-145.79;49.23;78594.13;5291399;28;20032;-72
2023/04/27 08:36:06;;;;;;;8.43;5.72;;;;;;;-145.79;49.54;78572.94;5318252;28;20471;-73
2023/04/27 08:38:38;;;;;;;10.65;5.63;;;;;;;-145.79;48.35;78568.69;5283618;28;20136;-72
2023/04/27 08:41:16;;;;;;;8.73;4.70;;;;;;;-145.79;47.24;78555.97;5303861;28;20164;-73
2023/04/27 08:43:49;;;;;;;7.90;5.65;;;;;;;-145.79;47.14;78553.84;5306024;28;20032;-73
2023/04/27 08:46:21;;;;;;;8.73;5.55;;;;;;;-145.79;47.72;78539.00;5304883;28;20589;-73
2023/04/27 08:48:53;;;;;;;6.22;4.80;;;;;;;-145.79;47.50;78532.63;5289897;28;20037;-74
2023/04/27 08:51:26;;;;;;;7.10;5.00;;;;;;;-145.79;47.49;78519.91;5285267;28;20035;-74
2023/04/27 08:53:58;;;;;;;5.50;4.93;;;;;;;-145.79;48.02;78509.31;5284825;28;20028;-72
2023/04/27 08:56:30;;;;;;;6.45;5.10;;;;;;;-145.79;45.97;78505.06;5294314;28;20027;-71
2023/04/27 08:59:03;;;;;;;6.57;5.00;;;;;;;-145.79;46.36;78511.44;5305300;28;20017;-71
2023/04/27 09:01:34;;;;;;;6.72;5.10;;;;;;;-145.79;46.06;78511.44;5304900;28;20065;-74
2023/04/27 09:04:06;;;;;;;8.10;4.55;;;;;;;-145.79;52.32;78454.19;5306104;28;20400;-73
2023/04/27 09:06:37;;;;;;;4.45;3.90;;;;;;;-145.79;46.14;78466.91;5303318;28;20047;-73
2023/04/27 09:09:10;;;;;;;7.25;4.60;;;;;;;-145.79;49.06;78430.88;5306390;28;20045;-73
2023/04/27 09:11:41;;;;;;;8.27;4.80;;;;;;;-145.79;47.34;78413.91;5305650;28;20028;-74
2023/04/27 09:14:17;;;;;;;5.55;4.40;;;;;;;-145.79;47.66;78418.16;5303940;28;20043;-74
2023/04/27 09:16:58;;;;;;;7.78;5.53;;;;;;;-145.79;45.19;78392.72;5323431;28;20360;-73
2023/04/27 09:19:30;;;;;;;7.22;4.20;;;;;;;-145.79;43.90;78403.31;5305642;28;20368;-73
2023/04/27 09:22:07;;;;;;;7.03;4.82;;;;;;;-145.79;43.23;78407.53;5304659;28;20040;-73
2023/04/27 09:24:49;;;;;;;6.97;4.60;;;;;;;-145.79;43.44;78392.72;5305833;28;20036;-71
2023/04/27 09:27:21;;;;;;;5.43;4.63;;;;;;;-145.79;42.29;78394.81;5304925;28;20031;-71
2023/04/27 09:29:53;;;;;;;7.10;4.68;;;;;;;-145.79;43.46;78377.88;5299161;28;20468;-71
2023/04/27 09:32:24;;;;;;;8.38;4.75;;;;;;;-145.79;41.68;78379.97;5302464;28;20039;-71
2023/04/27 09:34:56;;;;;;;7.63;4.32;;;;;;;-145.79;41.06;78382.09;5304874;28;20020;-71
2023/04/27 09:37:28;;;;;;;5.93;4.55;;;;;;;-145.79;40.56;78365.16;5305629;28;20028;-71
2023/04/27 09:40:01;;;;;;;5.35;4.13;;;;;;;-145.79;40.03;78363.03;5305754;28;20028;-71
2023/04/27 09:42:33;;;;;;;5.30;4.05;;;;;;;-145.79;40.66;78358.78;5304417;28;20115;-71
2023/04/27 09:45:06;;;;;;;5.22;4.07;;;;;;;-145.79;39.98;78356.66;5304507;28;20096;-71
2023/04/27 09:47:38;;;;;;;7.57;4.28;;;;;;;-145.79;38.95;78346.06;5294242;28;20040;-70
2023/04/27 09:50:12;;;;;;;4.72;4.22;;;;;;;-145.79;38.35;78326.97;5283444;28;20468;-71
2023/04/27 09:52:47;;;;;;;4.93;4.07;;;;;;;-145.79;39.35;78320.63;5283829;28;20032;-71
2023/04/27 09:55:34;;;;;;;6.90;4.38;;;;;;;-145.79;39.56;78284.56;5283863;28;20025;-70
2023/04/27 09:58:30;;;;;;;6.40;5.18;;;;;;;-145.79;39.41;78280.34;5282949;28;20573;-71
2023/04/27 10:01:40;;;;;;;4.57;3.95;;;;;;;-145.79;39.05;78265.50;5283853;28;20024;-71
2023/04/27 10:04:42;;;;;;;6.78;4.45;;;;;;;-145.79;39.27;78259.13;5283226;28;20017;-71
2023/04/27 10:07:15;;;;;;;8.65;5.20;;;;;;;-145.79;38.66;78257.03;5283542;28;20025;-71
2023/04/27 10:09:48;;;;;;;6.72;4.53;;;;;;;-145.79;38.82;78263.38;5283881;28;20055;-71
2023/04/27 10:12:35;;;;;;;7.18;3.95;;;;;;;-145.79;39.22;78242.19;5283033;28;20486;-72
2023/04/27 10:15:15;;;;;;;4.82;4.07;;;;;;;-145.79;39.02;78240.06;5283624;28;20024;-71
2023/04/27 10:17:51;;;;;;;5.85;4.65;;;;;;;-145.79;37.35;78242.19;5289643;28;20028;-71
2023/04/27 10:20:30;;;;;;;7.43;4.10;;;;;;;-145.79;37.46;78250.66;5303910;28;20523;-72
2023/04/27 10:23:01;;;;;;;5.60;4.47;;;;;;;-145.79;37.40;78250.66;5291930;28;20103;-71
2023/04/27 10:25:39;;;;;;;6.82;5.80;;;;;;;-145.79;38.78;78233.69;5303512;28;20103;-71
2023/04/27 10:28:16;;;;;;;5.85;5.15;;;;;;;-145.79;38.20;78218.84;5304591;28;20024;-72
2023/04/27 10:30:48;;;;;;;7.63;4.65;;;;;;;-145.79;37.43;78235.81;5303997;28;20028;-72
2023/04/27 10:33:22;;;;;;;7.82;5.13;;;;;;;-145.79;37.01;78237.94;5303545;28;20471;-73
2023/04/27 10:35:55;;;;;;;6.00;4.25;;;;;;;-145.79;36.94;78223.09;5304509;28;20020;-73
2023/04/27 10:38:29;;;;;;;5.32;4.72;;;;;;;-145.79;37.18;78229.47;5302779;28;20051;-72
2023/04/27 10:41:04;;;;;;;5.65;4.32;;;;;;;-145.79;37.01;78201.91;5304142;28;20017;-72
2023/04/27 10:43:35;;;;;;;6.95;4.85;;;;;;;-145.79;38.22;78199.78;5304275;28;20051;-72
2023/04/27 10:46:10;;;;;;;4.93;4.35;;;;;;;-145.79;37.16;78201.91;5302911;28;20016;-72
2023/04/27 10:48:43;;;;;;;6.30;5.00;;;;;;;-145.79;36.80;78180.69;5302920;28;20058;-72
2023/04/27 10:51:16;;;;;;;9.30;6.78;;;;;;;-145.79;36.63;78201.91;5303970;28;20028;-71
2023/04/27 10:53:51;;;;;;;6.22;5.57;;;;;;;-145.79;37.78;78167.97;5302794;28;20025;-71
2023/04/27 10:56:23;;;;;;;6.72;4.47;;;;;;;-145.79;36.96;78151.00;5300818;28;20073;-73
2023/04/27 10:59:00;;;;;;;9.55;5.20;;;;;;;-145.79;37.01;78138.28;5302525;28;20873;-72
2023/04/27 11:01:32;;;;;;;7.82;4.93;;;;;;;-145.79;36.55;78136.19;5302557;28;20024;-70
2023/04/27 11:04:04;;;;;;;5.00;4.45;;;;;;;-145.79;36.31;78134.06;5301237;28;20383;-70
2023/04/27 11:06:45;;;;;;;8.10;5.10;;;;;;;-145.79;36.25;78121.34;5291830;28;20020;-71
2023/04/27 11:09:26;;;;;;;6.72;5.43;;;;;;;-145.79;36.79;78091.66;5282607;28;20478;-72
2023/04/27 11:11:58;;;;;;;6.57;5.10;;;;;;;-145.79;38.02;78083.19;5287457;28;20032;-71
2023/04/27 11:14:35;;;;;;;8.20;5.30;;;;;;;-145.79;35.57;78102.25;5302942;28;20077;-70
2023/04/27 11:17:08;;;;;;;7.40;5.00;;;;;;;-145.79;35.29;78100.13;5303481;28;20451;-70
2023/04/27 11:19:46;;;;;;;6.03;4.57;;;;;;;-145.79;35.06;78100.13;5303243;28;20073;-70
2023/04/27 11:22:17;;;;;;;6.20;5.47;;;;;;;-145.79;34.95;78089.53;5301443;28;20048;-70
2023/04/27 11:24:50;;;;;;;6.05;5.25;;;;;;;-145.79;36.10;78085.28;5303601;28;20477;-70
2023/04/27 11:27:22;;;;;;;6.97;5.25;;;;;;;-145.79;35.42;78081.06;5302844;28;20035;-70
2023/04/27 11:29:54;;;;;;;7.95;6.07;;;;;;;-145.79;35.59;78061.97;5290649;28;20452;-70
2023/04/27 11:32:25;;;;;;;10.88;6.15;;;;;;;-145.79;34.88;78053.50;5284786;28;20047;-70
2023/04/27 11:34:57;;;;;;;6.38;5.10;;;;;;;-145.79;34.41;78030.19;5301510;28;20039;-70
2023/04/27 11:37:28;;;;;;;5.45;4.57;;;;;;;-145.79;35.08;77994.13;5303481;28;20021;-71
2023/04/27 11:40:00;;;;;;;7.53;5.32;;;;;;;-145.79;34.86;77972.94;5303163;28;20034;-70
2023/04/27 11:42:31;;;;;;;6.28;5.60;;;;;;;-145.79;33.96;77983.53;5302906;28;20353;-71
2023/04/27 11:45:05;;;;;;;6.55;5.07;;;;;;;-145.79;33.92;77992.00;5303155;28;20097;-71
2023/04/27 11:47:36;;;;;;;6.00;5.28;;;;;;;-145.79;34.44;77981.41;5296447;28;20157;-71
2023/04/27 11:50:08;;;;;;;6.20;5.35;;;;;;;-145.79;33.53;77981.41;5302447;28;20028;-70
2023/04/27 11:52:40;;;;;;;5.90;5.30;;;;;;;-145.79;34.19;77962.34;5284229;28;20124;-70
2023/04/27 11:55:14;;;;;;;8.93;5.38;;;;;;;-145.79;33.29;77955.97;5281338;28;20021;-70
2023/04/27 11:57:46;;;;;;;7.53;5.13;;;;;;;-145.79;33.71;77939.00;5281130;28;20027;-71
2023/04/27 12:00:17;;;;;;;5.32;4.40;;;;;;;-145.79;32.91;77939.00;5281538;28;20056;-69
2023/04/27 12:02:49;;;;;;;7.43;4.95;;;;;;;-145.79;33.80;77915.69;5289533;28;20567;-70
2023/04/27 12:05:21;;;;;;;6.13;5.18;;;;;;;-145.79;32.50;77905.09;5281308;28;20016;-70
2023/04/27 12:07:52;;;;;;;6.43;5.53;;;;;;;-145.79;32.78;77911.47;5296838;28;20099;-69
2023/04/27 12:10:24;;;;;;;8.02;4.78;;;;;;;-145.79;32.82;77888.13;5306053;28;20031;-70
2023/04/27 12:12:55;;;;;;;7.10;4.57;;;;;;;-145.79;32.43;77902.97;5307183;28;20514;-70
2023/04/27 12:15:30;;;;;;;6.22;4.90;;;;;;;-145.79;31.22;77881.78;5306855;28;20372;-69
2023/04/27 12:18:01;;;;;;;9.77;5.20;;;;;;;-145.79;31.63;77892.38;5306254;28;20028;-69
2023/04/27 12:20:33;;;;;;;40.25;34.60;;;;;;;-145.79;31.86;77875.41;5296082;28;20038;-70
2023/04/27 12:23:04;;;;;;;7.43;6.05;;;;;;;-145.79;31.79;77866.94;5285574;28;20063;-69
2023/04/27 12:25:36;;;;;;;8.85;5.15;;;;;;;-145.79;31.86;77875.41;5285428;28;20044;-70
2023/04/27 12:28:07;;;;;;;5.18;4.35;;;;;;;-145.79;32.14;77839.38;5306415;28;20059;-69
2023/04/27 12:30:39;;;;;;;5.82;5.07;;;;;;;-145.79;30.81;77843.63;5306013;28;20051;-69
2023/04/27 12:33:10;;;;;;;5.05;4.35;;;;;;;-145.79;30.53;77839.38;5306535;28;20081;-70
2023/04/27 12:35:43;;;;;;;5.93;5.15;;;;;;;-145.79;31.16;77818.19;5306129;28;20024;-69
2023/04/27 12:38:14;;;;;;;5.10;4.60;;;;;;;-145.79;31.13;77805.47;5289900;28;20094;-69
2023/04/27 12:40:46;;;;;;;9.02;5.25;;;;;;;-145.79;30.26;77784.25;5286772;28;20020;-69
2023/04/27 12:43:17;;;;;;;7.10;5.75;;;;;;;-145.79;30.54;77777.91;5306606;28;20043;-69
2023/04/27 12:45:49;;;;;;;6.07;5.05;;;;;;;-145.79;30.88;77767.31;5305572;28;20127;-69
2023/04/27 12:48:21;;;;;;;5.20;4.70;;;;;;;-145.79;31.20;77741.88;5306326;28;20476;-69
2023/04/27 12:50:52;;;;;;;6.20;5.00;;;;;;;-145.79;30.88;77765.19;5305841;28;20032;-68
2023/04/27 12:53:24;;;;;;;6.20;5.45;;;;;;;-145.79;31.27;77744.00;5304617;28;20431;-68
2023/04/27 12:55:55;;;;;;;8.50;5.05;;;;;;;-145.79;31.27;77746.09;5289919;28;20039;-69
2023/04/27 12:58:27;;;;;;;4.32;3.90;;;;;;;-145.79;30.39;77741.88;5306234;28;20148;-69
2023/04/27 13:00:58;;;;;;;5.93;3.67;;;;;;;-145.79;28.61;77724.91;5305452;28;20021;-69
2023/04/27 13:03:29;;;;;;;4.30;3.90;;;;;;;-145.79;28.77;77720.66;5306439;28;20024;-69
2023/04/27 13:06:04;;;;;;;6.05;5.00;;;;;;;-145.79;29.15;77718.56;5304361;28;20016;-69
2023/04/27 13:08:36;;;;;;;5.68;4.35;;;;;;;-145.79;29.61;77703.72;5305681;28;20112;-69
2023/04/27 13:11:08;;;;;;;4.75;4.35;;;;;;;-145.79;29.68;77701.59;5299577;28;20028;-69
2023/04/27 13:13:39;;;;;;;5.72;4.72;;;;;;;-145.79;29.51;77669.78;5283964;28;20103;-69
2023/04/27 13:16:11;;;;;;;7.18;5.20;;;;;;;-145.79;29.50;77699.47;5284657;28;20024;-69
2023/04/27 13:18:46;;;;;;;5.70;4.90;;;;;;;-145.79;30.21;77652.84;5284919;28;20468;-69
2023/04/27 13:21:18;;;;;;;6.00;5.40;;;;;;;-145.79;30.58;77667.69;5283715;28;20090;-71
2023/04/27 13:23:52;;;;;;;8.23;5.45;;;;;;;-145.79;30.26;77686.75;5284200;28;20012;-71
2023/04/27 13:26:23;;;;;;;9.75;8.73;;;;;;;-145.79;30.87;77657.06;5295597;28;20055;-71
2023/04/27 13:28:56;;;;;;;6.07;5.43;;;;;;;-145.79;31.12;77648.59;5299753;28;20060;-70
2023/04/27 13:31:27;;;;;;;5.97;5.07;;;;;;;-145.79;31.02;77627.41;5308212;28;20030;-68
2023/04/27 13:34:00;;;;;;;6.50;5.18;;;;;;;-145.79;31.57;77618.91;5325983;28;20475;-68
2023/04/27 13:36:31;;;;;;;6.10;5.60;;;;;;;-145.79;30.69;77623.16;5326656;28;20020;-67
2023/04/27 13:39:03;;;;;;;4.85;4.35;;;;;;;-145.79;30.74;77593.47;5326582;28;20031;-69
2023/04/27 13:41:35;;;;;;;6.60;5.00;;;;;;;-145.79;30.21;77638.00;5325293;28;20031;-69
2023/04/27 13:44:06;;;;;;;7.20;6.45;;;;;;;-145.79;30.53;77631.63;5310504;28;20035;-69
2023/04/27 13:46:37;;;;;;;6.03;5.15;;;;;;;-145.79;30.67;77629.53;5286359;28;20024;-69
2023/04/27 13:49:09;;;;;;;5.68;5.10;;;;;;;-145.79;30.03;77635.88;5291152;28;20027;-69
2023/04/27 13:51:41;;;;;;;6.68;5.57;;;;;;;-145.79;30.53;77644.34;5305381;28;20058;-69
2023/04/27 13:54:12;;;;;;;7.40;5.47;;;;;;;-145.79;30.86;77644.34;5305031;28;20134;-69
2023/04/27 13:56:43;;;;;;;7.72;4.97;;;;;;;-145.79;31.96;77652.84;5303817;28;20020;-70
2023/04/27 13:59:15;;;;;;;6.32;5.25;;;;;;;-145.79;31.01;77644.34;5304795;28;20050;-71
2023/04/27 14:01:46;;;;;;;5.20;4.68;;;;;;;-145.79;30.81;77633.75;5300495;28;20387;-70
2023/04/27 14:04:17;;;;;;;5.90;4.82;;;;;;;-145.79;30.28;77642.25;5283148;28;20032;-68
2023/04/27 14:06:49;;;;;;;6.85;4.68;;;;;;;-145.79;31.06;77627.41;5283683;28;20027;-71
2023/04/27 14:09:22;;;;;;;6.20;5.50;;;;;;;-145.79;29.97;77631.63;5282916;28;20147;-68
2023/04/27 14:11:55;;;;;;;5.30;4.57;;;;;;;-145.79;30.52;77606.19;5283473;28;20462;-70
2023/04/27 14:14:26;;;;;;;6.30;4.90;;;;;;;-145.79;30.48;77601.97;5283903;28;20397;-70
2023/04/27 14:16:57;;;;;;;7.22;5.35;;;;;;;-145.79;30.02;77593.47;5282972;28;20118;-70
2023/04/27 14:19:30;;;;;;;6.40;4.55;;;;;;;-145.79;30.21;77589.25;5284121;28;20021;-70
2023/04/27 14:22:03;;;;;;;7.28;5.90;;;;;;;-145.79;29.88;77591.38;5283211;28;20044;-70
2023/04/27 14:24:34;;;;;;;8.88;4.88;;;;;;;-145.79;29.94;77563.81;5282615;28;20345;-71
2023/04/27 14:27:06;;;;;;;5.28;4.68;;;;;;;-145.79;30.22;77559.56;5283318;28;20029;-70
2023/04/27 14:29:37;;;;;;;5.80;4.43;;;;;;;-145.79;30.05;77553.22;5283453;28;20020;-70
2023/04/27 14:32:08;;;;;;;5.70;4.90;;;;;;;-145.79;30.62;77572.28;5282515;28;20117;-71
2023/04/27 14:34:39;;;;;;;7.82;4.75;;;;;;;-145.79;30.48;77572.28;5283193;28;20024;-70
2023/04/27 14:37:11;;;;;;;9.15;5.70;;;;;;;-145.79;29.91;77563.81;5283394;28;20027;-71
2023/04/27 14:39:42;;;;;;;6.15;5.28;;;;;;;-145.79;29.16;77591.38;5297231;28;20020;-70
2023/04/27 14:42:13;;;;;;;5.43;4.93;;;;;;;-145.79;29.88;77557.44;5302072;28;20345;-70
2023/04/27 14:44:45;;;;;;;5.72;5.18;;;;;;;-145.79;30.85;77563.81;5303567;28;20039;-71
2023/04/27 14:47:17;;;;;;;6.47;5.35;;;;;;;-145.79;29.93;77553.22;5303804;28;20028;-70
2023/04/27 14:49:48;;;;;;;7.72;5.38;;;;;;;-145.79;29.83;77568.03;5304088;28;20068;-70
2023/04/27 14:52:20;;;;;;;8.27;4.85;;;;;;;-145.79;30.81;77551.09;5302720;28;20107;-70
2023/04/27 14:54:51;;;;;;;24.83;22.23;;;;;;;-145.79;30.32;77555.31;5283521;28;20028;-71
2023/04/27 14:57:22;;;;;;;8.90;6.68;;;;;;;-145.79;30.48;77551.09;5282701;28;20083;-71
2023/04/27 14:59:53;;;;;;;8.27;6.20;;;;;;;-145.79;30.16;77563.81;5285905;28;20047;-71
2023/04/27 15:02:31;;;;;;;11.00;5.30;;;;;;;-145.79;30.26;77593.47;5303998;28;20407;-70
2023/04/27 15:05:02;;;;;;;7.72;4.85;;;;;;;-145.79;30.95;77606.19;5304168;28;20028;-70
2023/04/27 15:07:34;;;;;;;5.97;5.35;;;;;;;-145.79;30.26;77604.09;5303165;28;20548;-70
2023/04/27 15:10:07;;;;;;;7.15;5.18;;;;;;;-145.79;30.66;77606.19;5297340;28;20020;-72
2023/04/27 15:12:38;;;;;;;6.60;5.78;;;;;;;-145.79;30.31;77618.91;5281814;28;20032;-71
2023/04/27 15:15:11;;;;;;;5.13;4.50;;;;;;;-145.79;31.04;77606.19;5282672;28;20035;-70
2023/04/27 15:17:43;;;;;;;8.32;5.43;;;;;;;-145.79;31.17;77612.56;5289321;28;20039;-70
2023/04/27 15:20:14;;;;;;;7.95;5.18;;;;;;;-145.79;30.65;77623.16;5302656;28;20028;-71
2023/04/27 15:22:45;;;;;;;12.23;6.60;;;;;;;-145.79;30.54;77629.53;5303196;28;20035;-68
2023/04/27 15:25:17;;;;;;;40.97;31.95;;;;;;;-145.79;31.75;77618.91;5303712;28;20016;-68
2023/04/27 15:27:48;;;;;;;7.32;6.47;;;;;;;-145.79;31.58;77631.63;5301692;28;20036;-68
2023/04/27 15:30:19;;;;;;;6.97;5.43;;;;;;;-145.79;30.51;77640.13;5302496;28;20479;-70
2023/04/27 15:32:51;;;;;;;6.00;5.40;;;;;;;-145.79;30.73;77627.41;5302307;28;20024;-70
2023/04/27 15:35:22;;;;;;;6.05;4.95;;;;;;;-145.79;31.23;77638.00;5302665;28;20020;-70
2023/04/27 15:37:53;;;;;;;6.85;5.65;;;;;;;-145.79;30.98;77638.00;5303604;28;20016;-70
2023/04/27 15:40:25;;;;;;;7.05;5.32;;;;;;;-145.79;31.33;77642.25;5303617;28;20031;-70
2023/04/27 15:42:56;;;;;;;6.45;5.78;;;;;;;-145.79;30.47;77640.13;5304759;28;20145;-70
2023/04/27 15:45:28;;;;;;;6.45;5.43;;;;;;;-145.79;30.76;77650.72;5290007;28;20036;-70
2023/04/27 15:47:59;;;;;;;9.18;6.80;;;;;;;-145.79;31.10;77644.34;5286043;28;20025;-71
2023/04/27 15:50:31;;;;;;;7.28;5.70;;;;;;;-145.79;31.15;77644.34;5303821;28;20027;-70
2023/04/27 15:53:02;;;;;;;8.55;5.93;;;;;;;-145.79;30.71;77644.34;5307828;28;20028;-71
2023/04/27 15:55:33;;;;;;;7.45;6.45;;;;;;;-145.79;31.04;77652.84;5306855;28;20114;-70
2023/04/27 15:58:05;;;;;;;10.65;6.13;;;;;;;-145.79;30.59;77644.34;5307371;28;20024;-70
2023/04/27 16:00:36;;;;;;;6.30;5.65;;;;;;;-145.79;30.60;77661.31;5304882;28;20028;-71
2023/04/27 16:03:09;;;;;;;7.30;5.65;;;;;;;-145.79;31.61;77665.56;5285444;28;20033;-72
2023/04/27 16:05:40;;;;;;;7.10;5.90;;;;;;;-145.79;30.85;77659.19;5286294;28;20146;-72
2023/04/27 16:08:12;;;;;;;6.55;5.30;;;;;;;-145.79;31.50;77646.47;5286197;28;20108;-72
2023/04/27 16:10:43;;;;;;;7.30;5.88;;;;;;;-145.79;31.01;77635.88;5285365;28;20380;-72
2023/04/27 16:13:14;;;;;;;9.93;6.47;;;;;;;-145.79;31.58;77631.63;5286313;28;20031;-72
2023/04/27 16:15:45;;;;;;;11.35;7.60;;;;;;;-145.79;31.54;77614.69;5284849;28;20040;-71
2023/04/27 16:18:17;;;;;;;8.38;5.75;;;;;;;-145.79;31.26;77623.16;5296053;28;20364;-72
2023/04/27 16:20:48;;;;;;;7.03;6.35;;;;;;;-145.79;31.41;77627.41;5306682;28;20150;-72
2023/04/27 16:23:20;;;;;;;7.45;6.05;;;;;;;-145.79;31.23;77644.34;5305953;28;20129;-71
2023/04/27 16:25:51;;;;;;;8.00;6.68;;;;;;;-145.79;31.02;77640.13;5306884;28;20398;-71
2023/04/27 16:28:22;;;;;;;9.07;6.60;;;;;;;-145.79;30.85;77635.88;5307214;28;20378;-71
2023/04/27 16:30:53;;;;;;;9.98;6.63;;;;;;;-145.79;31.55;77625.28;5306092;28;20020;-71
2023/04/27 16:33:28;;;;;;;6.78;6.07;;;;;;;-145.79;31.35;77629.53;5306643;28;20016;-71
2023/04/27 16:35:59;;;;;;;8.00;5.70;;;;;;;-145.79;31.07;77627.41;5305286;28;20491;-72
2023/04/27 16:38:30;;;;;;;8.63;6.47;;;;;;;-145.79;31.67;77638.00;5305779;28;20016;-72
2023/04/27 16:41:04;;;;;;;8.48;5.72;;;;;;;-145.79;31.63;77644.34;5306637;28;20412;-71
2023/04/27 16:43:36;;;;;;;8.23;6.28;;;;;;;-145.79;31.35;77648.59;5306456;28;20115;-72
2023/04/27 16:46:09;;;;;;;9.70;7.75;;;;;;;-145.79;31.14;77657.06;5301904;28;20054;-71
2023/04/27 16:48:40;;;;;;;6.95;6.25;;;;;;;-145.79;31.35;77652.84;5306562;28;20498;-72
2023/04/27 16:51:12;;;;;;;7.88;6.15;;;;;;;-145.79;31.55;77648.59;5305560;28;20055;-72
2023/04/27 16:53:44;;;;;;;7.10;6.43;;;;;;;-145.79;31.72;77640.13;5286245;28;20104;-72
